Time;durP1;ratioP1;P1;durP2;ratioP2;P2;SDS_P1;SDS_P2;PMS_P1;PMS_P2;Temp;Humidity;BMP_temperature;BMP_pressure;BME280_temperature;BME280_humidity;BME280_pressure;Samples;Min_cycle;Max_cycle;Signal;HPM_P1;HPM_P2
2023/01/24 00:01:26;0.00;0.00;0.62;0.00;0.00;0.62;1.80;1.37;;;21.40;24.90;;;;;;2259411;61;20400;-59
2023/01/24 00:04:11;0.00;0.00;0.62;0.00;0.00;0.62;2.10;1.30;;;21.40;24.90;;;;;;2259476;61;20428;-61
2023/01/24 00:06:55;0.00;0.00;0.62;0.00;0.00;0.62;2.27;1.40;;;21.40;24.90;;;;;;2259334;61;20835;-61
2023/01/24 00:09:41;0.00;0.00;0.62;0.00;0.00;0.62;1.90;1.27;;;21.40;24.90;;;;;;2259530;61;20396;-62
2023/01/24 00:12:28;0.00;0.00;0.62;0.00;0.00;0.62;2.13;1.20;;;21.40;24.90;;;;;;2259168;61;20373;-60
2023/01/24 00:15:12;0.00;0.00;0.62;0.00;0.00;0.62;1.73;1.13;;;21.40;24.90;;;;;;2259720;61;20920;-60
2023/01/24 00:17:58;0.00;0.00;0.62;0.00;0.00;0.62;1.80;1.20;;;21.40;24.90;;;;;;2258944;61;20365;-58
2023/01/24 00:20:43;0.00;0.00;0.62;0.00;0.00;0.62;1.60;1.10;;;21.40;24.90;;;;;;2259271;61;20369;-59
2023/01/24 00:23:27;0.00;0.00;0.62;0.00;0.00;0.62;1.97;1.43;;;21.40;24.90;;;;;;2259183;61;20443;-59
2023/01/24 00:26:14;0.00;0.00;0.62;0.00;0.00;0.62;2.03;1.33;;;21.40;24.90;;;;;;2258873;61;20393;-61
2023/01/24 00:29:01;0.00;0.00;0.62;0.00;0.00;0.62;1.73;1.17;;;21.40;24.90;;;;;;2259302;61;20365;-59
2023/01/24 00:31:46;0.00;0.00;0.62;0.00;0.00;0.62;1.80;1.10;;;21.40;24.90;;;;;;2259291;61;20415;-59
2023/01/24 00:34:30;0.00;0.00;0.62;0.00;0.00;0.62;1.83;1.30;;;21.40;24.90;;;;;;2259500;61;20482;-62
2023/01/24 00:37:15;0.00;0.00;0.62;0.00;0.00;0.62;2.00;1.30;;;21.40;24.90;;;;;;2259604;61;20384;-61
2023/01/24 00:40:00;0.00;0.00;0.62;0.00;0.00;0.62;2.27;1.40;;;21.40;25.40;;;;;;2259438;61;20392;-58
2023/01/24 00:42:47;0.00;0.00;0.62;0.00;0.00;0.62;1.90;1.10;;;21.40;25.20;;;;;;2259167;61;20373;-62
2023/01/24 00:45:34;0.00;0.00;0.62;0.00;0.00;0.62;2.00;1.40;;;21.40;24.90;;;;;;2259167;61;20396;-62
2023/01/24 00:48:19;0.00;0.00;0.62;0.00;0.00;0.62;2.20;1.50;;;21.40;24.90;;;;;;2259610;61;20365;-60
2023/01/24 00:51:04;0.00;0.00;0.62;0.00;0.00;0.62;2.47;1.50;;;21.40;24.90;;;;;;2258786;61;20500;-58
2023/01/24 00:53:49;0.00;0.00;0.62;0.00;0.00;0.62;1.73;1.17;;;21.40;24.90;;;;;;2259192;61;20846;-59
2023/01/24 00:56:34;0.00;0.00;0.62;0.00;0.00;0.62;1.87;1.13;;;21.40;24.90;;;;;;2259563;61;20821;-59
2023/01/24 00:59:20;0.00;0.00;0.62;0.00;0.00;0.62;1.80;1.17;;;21.40;24.90;;;;;;2259982;61;20744;-58
2023/01/24 01:02:07;0.00;0.00;0.62;0.00;0.00;0.62;1.57;1.10;;;21.40;24.90;;;;;;2259587;61;20588;-60
2023/01/24 01:04:52;0.00;0.00;0.62;0.00;0.00;0.62;1.50;1.00;;;21.30;24.90;;;;;;2258066;61;20388;-57
2023/01/24 01:07:36;0.00;0.00;0.62;0.00;0.00;0.62;2.30;1.63;;;21.40;24.90;;;;;;2271853;58;20773;-61
2023/01/24 01:10:21;0.00;0.00;0.62;0.00;0.00;0.62;1.53;1.13;;;21.40;24.90;;;;;;2259385;61;20437;-57
2023/01/24 01:13:06;0.00;0.00;0.62;0.00;0.00;0.62;1.90;1.20;;;21.40;24.90;;;;;;2259024;61;20408;-60
2023/01/24 01:16:01;0.00;0.00;0.62;0.00;0.00;0.62;2.00;1.37;;;21.30;24.90;;;;;;2259229;61;20477;-60
2023/01/24 01:18:47;0.00;0.00;0.62;0.00;0.00;0.62;1.50;1.03;;;21.30;24.90;;;;;;2259559;61;20380;-59
2023/01/24 01:21:32;0.00;0.00;0.62;0.00;0.00;0.62;1.97;1.27;;;21.30;24.90;;;;;;2261995;61;20380;-60
2023/01/24 01:24:17;0.00;0.00;0.62;0.00;0.00;0.62;1.73;1.00;;;21.30;24.90;;;;;;2256096;61;20372;-60
2023/01/24 01:27:04;0.00;0.00;0.62;0.00;0.00;0.62;2.20;1.30;;;21.30;24.90;;;;;;2258158;61;20365;-60
2023/01/24 01:29:48;0.00;0.00;0.62;0.00;0.00;0.62;1.60;1.13;;;21.40;25.00;;;;;;2258775;61;20807;-60
2023/01/24 01:32:34;0.00;0.00;0.62;0.00;0.00;0.62;2.03;1.17;;;21.30;24.90;;;;;;2304797;58;20369;-61
2023/01/24 01:35:19;0.00;0.00;0.62;0.00;0.00;0.62;1.77;1.33;;;21.30;24.90;;;;;;2495242;53;20492;-61
2023/01/24 01:38:03;0.00;0.00;0.62;0.00;0.00;0.62;1.90;1.10;;;21.40;25.00;;;;;;2259256;61;20407;-61
2023/01/24 01:40:48;0.00;0.00;0.62;0.00;0.00;0.62;2.00;1.40;;;21.30;24.90;;;;;;2259697;61;20454;-59
2023/01/24 01:43:33;0.00;0.00;0.62;0.00;0.00;0.62;1.97;1.23;;;21.30;24.90;;;;;;2258651;61;20929;-58
2023/01/24 01:46:23;0.00;0.00;0.62;0.00;0.00;0.62;2.10;1.40;;;21.30;24.90;;;;;;2259131;61;20435;-61
2023/01/24 01:49:18;0.00;0.00;0.62;0.00;0.00;0.62;2.00;1.20;;;21.30;25.00;;;;;;2258927;61;20454;-60
2023/01/24 01:52:06;0.00;0.00;0.62;0.00;0.00;0.62;2.43;1.77;;;21.30;25.00;;;;;;2259313;61;20365;-60
2023/01/24 01:54:53;0.00;0.00;0.62;0.00;0.00;0.62;2.20;1.77;;;21.30;24.90;;;;;;2259069;61;20928;-53
2023/01/24 01:57:40;0.00;0.00;0.62;0.00;0.00;0.62;2.00;1.60;;;21.30;24.90;;;;;;2258616;61;20373;-50
2023/01/24 02:00:28;0.00;0.00;0.62;0.00;0.00;0.62;2.53;1.80;;;21.30;24.90;;;;;;2258880;61;20397;-54
2023/01/24 02:06:46;0.00;0.00;0.62;0.00;0.00;0.62;3.20;2.60;;;21.30;24.80;;;;;;2259322;61;20472;-51
2023/01/24 02:09:34;0.00;0.00;0.62;0.00;0.00;0.62;3.70;2.97;;;21.30;24.70;;;;;;2259625;61;20787;-56
2023/01/24 02:12:23;0.00;0.00;0.62;0.00;0.00;0.62;3.77;3.20;;;21.30;24.60;;;;;;2259553;61;20387;-57
2023/01/24 02:18:16;0.00;0.00;0.62;0.00;0.00;0.62;3.30;3.00;;;21.30;24.40;;;;;;2259140;61;20395;-60
2023/01/24 02:21:02;0.00;0.00;0.62;0.00;0.00;0.62;3.17;2.73;;;21.30;24.30;;;;;;2260470;61;20501;-52
2023/01/24 02:23:57;0.00;0.00;0.62;0.00;0.00;0.62;2.90;2.60;;;21.30;24.20;;;;;;2259819;61;20929;-55
2023/01/24 02:26:43;0.00;0.00;0.62;0.00;0.00;0.62;3.60;2.77;;;21.30;24.70;;;;;;2259199;61;20365;-55
2023/01/24 02:29:28;0.00;0.00;0.62;0.00;0.00;0.62;4.00;3.60;;;21.30;24.10;;;;;;2259755;61;20365;-56
2023/01/24 02:32:14;0.00;0.00;0.62;0.00;0.00;0.62;3.37;3.00;;;21.30;24.10;;;;;;2259573;61;20856;-57
2023/01/24 02:35:00;0.00;0.00;0.62;0.00;0.00;0.62;4.70;3.03;;;21.30;24.00;;;;;;2259036;61;20912;-51
2023/01/24 02:37:46;0.00;0.00;0.62;0.00;0.00;0.62;3.50;3.10;;;21.30;23.90;;;;;;2259160;61;20396;-54
2023/01/24 02:40:32;0.00;0.00;0.62;0.00;0.00;0.62;3.53;2.87;;;21.20;23.90;;;;;;2259326;61;20408;-51
2023/01/24 02:43:21;0.00;0.00;0.62;0.00;0.00;0.62;3.27;2.83;;;21.20;23.90;;;;;;2259476;61;20424;-51
2023/01/24 02:46:06;0.00;0.00;0.62;0.00;0.00;0.62;3.77;3.00;;;21.20;23.80;;;;;;2259908;61;20389;-53
2023/01/24 02:48:51;0.00;0.00;0.62;0.00;0.00;0.62;3.60;3.10;;;21.20;24.30;;;;;;2259036;61;20452;-52
2023/01/24 02:54:40;0.00;0.00;0.62;0.00;0.00;0.62;4.57;2.73;;;21.20;23.70;;;;;;2259144;61;20435;-53
2023/01/24 03:00:29;0.00;0.00;0.62;0.00;0.00;0.62;3.17;2.60;;;21.10;23.70;;;;;;2259869;61;20368;-50
2023/01/24 03:03:17;0.00;0.00;0.62;0.00;0.00;0.62;3.20;2.63;;;21.10;23.60;;;;;;2258600;61;20501;-56
2023/01/24 03:06:02;0.00;0.00;0.62;0.00;0.00;0.62;3.90;2.93;;;21.10;23.60;;;;;;2259406;61;20805;-52
2023/01/24 03:08:50;0.00;0.00;0.62;0.00;0.00;0.62;3.20;2.60;;;21.10;23.50;;;;;;2260006;61;20419;-53
2023/01/24 03:11:45;0.00;0.00;0.62;0.00;0.00;0.62;3.57;3.23;;;21.10;23.70;;;;;;2259081;61;20369;-52
2023/01/24 03:36:06;0.00;0.00;0.62;0.00;0.00;0.62;3.30;2.70;;;20.90;23.50;;;;;;2258744;61;20419;-58
2023/01/24 03:41:57;0.00;0.00;0.62;0.00;0.00;0.62;3.50;2.63;;;20.80;23.40;;;;;;2259620;61;20364;-53
2023/01/24 03:44:42;0.00;0.00;0.62;0.00;0.00;0.62;3.20;2.80;;;20.80;23.40;;;;;;2258822;61;20392;-53
2023/01/24 03:47:27;0.00;0.00;0.62;0.00;0.00;0.62;3.40;2.70;;;20.80;23.40;;;;;;2258333;61;20365;-57
2023/01/24 03:53:20;0.00;0.00;0.62;0.00;0.00;0.62;3.50;2.73;;;20.80;23.50;;;;;;2259385;61;20365;-56
2023/01/24 03:56:07;0.00;0.00;0.62;0.00;0.00;0.62;3.33;2.80;;;20.80;23.40;;;;;;2258962;61;21050;-53
2023/01/24 03:59:00;0.00;0.00;0.62;0.00;0.00;0.62;4.80;3.03;;;20.80;23.40;;;;;;2258909;61;20397;-57
2023/01/24 04:01:48;0.00;0.00;0.62;0.00;0.00;0.62;3.67;2.97;;;20.70;23.30;;;;;;2259119;61;20361;-58
2023/01/24 04:07:50;0.00;0.00;0.62;0.00;0.00;0.62;3.37;2.97;;;20.70;23.40;;;;;;2259016;61;20904;-52
2023/01/24 04:10:35;0.00;0.00;0.62;0.00;0.00;0.62;3.63;3.07;;;20.70;23.30;;;;;;2258664;61;20476;-58
2023/01/24 04:13:21;0.00;0.00;0.62;0.00;0.00;0.62;3.30;2.70;;;20.70;23.30;;;;;;2258686;61;20932;-54
2023/01/24 04:16:07;0.00;0.00;0.62;0.00;0.00;0.62;4.07;3.00;;;20.60;23.30;;;;;;2259039;61;20848;-54
2023/01/24 04:19:08;0.00;0.00;0.62;0.00;0.00;0.62;3.53;3.10;;;20.70;23.40;;;;;;2259353;61;20411;-55
2023/01/24 04:21:53;0.00;0.00;0.62;0.00;0.00;0.62;3.47;3.13;;;20.60;23.20;;;;;;2259245;61;20443;-52
2023/01/24 04:24:39;0.00;0.00;0.62;0.00;0.00;0.62;3.37;2.60;;;20.60;23.30;;;;;;2258704;61;20473;-52
2023/01/24 04:27:24;0.00;0.00;0.62;0.00;0.00;0.62;3.60;3.03;;;20.60;23.30;;;;;;2258662;61;20628;-52
2023/01/24 04:30:22;0.00;0.00;0.62;0.00;0.00;0.62;3.83;3.07;;;20.60;23.30;;;;;;2259234;61;20357;-54
2023/01/24 04:33:10;0.00;0.00;0.62;0.00;0.00;0.62;3.40;3.10;;;20.60;23.20;;;;;;2258389;61;20923;-57
2023/01/24 04:35:59;0.00;0.00;0.62;0.00;0.00;0.62;3.30;3.00;;;20.50;23.20;;;;;;2258943;61;20481;-51
2023/01/24 04:38:44;0.00;0.00;0.62;0.00;0.00;0.62;4.00;3.10;;;20.50;23.20;;;;;;2259033;61;20821;-57
2023/01/24 04:41:48;0.00;0.00;0.62;0.00;0.00;0.62;3.40;3.00;;;20.50;23.20;;;;;;2259333;61;20876;-52
2023/01/24 04:44:34;0.00;0.00;0.62;0.00;0.00;0.62;3.50;3.00;;;20.50;23.20;;;;;;2259293;61;20411;-58
2023/01/24 04:47:19;0.00;0.00;0.62;0.00;0.00;0.62;3.23;2.77;;;20.50;23.20;;;;;;2258161;61;20357;-55
2023/01/24 04:50:06;0.00;0.00;0.62;0.00;0.00;0.62;3.50;2.97;;;20.40;23.60;;;;;;2258791;61;20364;-51
2023/01/24 04:52:51;0.00;0.00;0.62;0.00;0.00;0.62;3.17;2.70;;;20.40;23.00;;;;;;2258768;61;20411;-54
2023/01/24 04:55:36;0.00;0.00;0.62;0.00;0.00;0.62;4.73;2.70;;;20.40;23.10;;;;;;2258635;61;20401;-54
2023/01/24 04:58:23;0.00;0.00;0.62;0.00;0.00;0.62;2.60;2.40;;;20.40;23.20;;;;;;2258957;61;20364;-50
2023/01/24 05:01:07;0.00;0.00;0.62;0.00;0.00;0.62;3.20;2.57;;;20.50;23.20;;;;;;2258368;61;20397;-53
2023/01/24 05:03:59;0.00;0.00;0.62;0.00;0.00;0.62;3.10;2.50;;;20.40;23.20;;;;;;2259051;61;20500;-49
2023/01/24 05:06:44;0.00;0.00;0.62;0.00;0.00;0.62;2.40;2.00;;;20.40;23.20;;;;;;2267261;61;20369;-55
2023/01/24 05:09:29;0.00;0.00;0.62;0.00;0.00;0.62;2.60;2.40;;;20.40;23.30;;;;;;2258443;61;20412;-54
2023/01/24 05:12:19;0.00;0.00;0.62;0.00;0.00;0.62;3.50;2.70;;;20.40;23.40;;;;;;2256283;61;20365;-54
2023/01/24 05:15:07;0.00;0.00;0.62;0.00;0.00;0.62;2.67;2.20;;;20.40;23.40;;;;;;2258448;61;20421;-58
2023/01/24 05:17:52;0.00;0.00;0.62;0.00;0.00;0.62;3.03;2.73;;;20.30;23.40;;;;;;2261406;61;20412;-55
2023/01/24 05:20:40;0.00;0.00;0.62;0.00;0.00;0.62;2.93;2.23;;;20.30;23.40;;;;;;2258968;61;20495;-53
2023/01/24 05:23:25;0.00;0.00;0.62;0.00;0.00;0.62;3.03;2.10;;;20.30;23.50;;;;;;2255592;61;20388;-52
2023/01/24 05:26:11;0.00;0.00;0.62;0.00;0.00;0.62;3.40;2.30;;;20.40;23.60;;;;;;2258777;61;20392;-55
2023/01/24 05:28:56;0.00;0.00;0.62;0.00;0.00;0.62;2.53;2.20;;;20.30;23.60;;;;;;2259065;61;20361;-52
2023/01/24 05:31:43;0.00;0.00;0.62;0.00;0.00;0.62;4.30;2.63;;;20.30;24.10;;;;;;2258485;61;20769;-59
2023/01/24 05:34:29;0.00;0.00;0.62;0.00;0.00;0.62;2.27;1.80;;;20.30;23.60;;;;;;2258753;61;20384;-57
2023/01/24 05:37:14;0.00;0.00;0.62;0.00;0.00;0.62;2.10;1.80;;;20.30;23.60;;;;;;2258935;61;20439;-51
2023/01/24 05:40:01;0.00;0.00;0.62;0.00;0.00;0.62;2.57;1.90;;;20.30;23.70;;;;;;2261525;61;20402;-57
2023/01/24 05:42:46;0.00;0.00;0.62;0.00;0.00;0.62;2.70;2.27;;;20.30;23.70;;;;;;2259575;61;20356;-53
2023/01/24 05:45:31;0.00;0.00;0.62;0.00;0.00;0.62;2.10;1.90;;;20.30;23.70;;;;;;2259212;61;20396;-61
2023/01/24 05:48:18;0.00;0.00;0.62;0.00;0.00;0.62;1.97;1.57;;;20.30;23.70;;;;;;2259461;61;20411;-55
2023/01/24 05:51:06;0.00;0.00;0.62;0.00;0.00;0.62;1.93;1.63;;;20.30;23.70;;;;;;2262433;61;20462;-57
2023/01/24 05:53:51;0.00;0.00;0.62;0.00;0.00;0.62;3.00;2.40;;;20.30;23.70;;;;;;2258868;61;20364;-53
2023/01/24 05:56:56;0.00;0.00;0.62;0.00;0.00;0.62;2.77;1.73;;;20.30;23.80;;;;;;2259454;61;20360;-51
2023/01/24 05:59:43;0.00;0.00;0.62;0.00;0.00;0.62;2.30;1.70;;;20.30;23.80;;;;;;2259802;61;20869;-55
2023/01/24 06:02:28;0.00;0.00;0.62;0.00;0.00;0.62;2.07;1.50;;;20.30;23.80;;;;;;2259367;61;20361;-57
2023/01/24 06:05:14;0.00;0.00;0.62;0.00;0.00;0.62;2.50;1.80;;;20.30;23.80;;;;;;2258866;61;20431;-52
2023/01/24 06:08:00;0.00;0.00;0.62;0.00;0.00;0.62;2.33;2.00;;;20.30;23.80;;;;;;2258838;61;20363;-57
2023/01/24 06:10:45;0.00;0.00;0.62;0.00;0.00;0.62;2.17;1.70;;;20.30;23.80;;;;;;2259657;61;20412;-54
2023/01/24 06:13:31;0.00;0.00;0.62;0.00;0.00;0.62;2.20;1.60;;;20.30;23.80;;;;;;2259579;61;20352;-55
2023/01/24 06:16:19;0.00;0.00;0.62;0.00;0.00;0.62;2.20;1.70;;;20.30;23.90;;;;;;2258639;61;20439;-56
2023/01/24 06:19:05;0.00;0.00;0.62;0.00;0.00;0.62;2.70;1.63;;;20.30;23.80;;;;;;2259284;61;20411;-58
2023/01/24 06:22:01;0.00;0.00;0.62;0.00;0.00;0.62;2.63;1.30;;;20.40;24.00;;;;;;2259953;61;20365;-51
2023/01/24 06:24:52;0.00;0.00;0.62;0.00;0.00;0.62;2.23;1.70;;;20.40;24.00;;;;;;2256783;61;20392;-52
2023/01/24 06:27:50;0.00;0.00;0.62;0.00;0.00;0.62;2.60;1.67;;;20.40;23.90;;;;;;2259559;61;20357;-55
2023/01/24 06:30:39;0.00;0.00;0.62;0.00;0.00;0.62;1.93;1.40;;;20.40;24.00;;;;;;2259521;61;20940;-51
2023/01/24 06:33:36;0.00;0.00;0.62;0.00;0.00;0.62;1.83;1.50;;;20.40;24.00;;;;;;2259539;61;20357;-57
2023/01/24 06:36:41;0.00;0.00;0.62;0.00;0.00;0.62;2.20;1.40;;;20.40;24.00;;;;;;2259280;61;20381;-53
2023/01/24 06:39:28;0.00;0.00;0.62;0.00;0.00;0.62;2.43;1.53;;;20.40;24.00;;;;;;2259178;61;20368;-54
2023/01/24 06:42:13;0.00;0.00;0.62;0.00;0.00;0.62;1.93;1.53;;;20.40;24.00;;;;;;2259603;61;20775;-54
2023/01/24 06:44:58;0.00;0.00;0.62;0.00;0.00;0.62;2.17;1.60;;;20.40;24.00;;;;;;2258764;61;20400;-54
2023/01/24 06:47:43;0.00;0.00;0.62;0.00;0.00;0.62;1.77;1.37;;;20.40;24.00;;;;;;2259792;61;20365;-55
2023/01/24 06:50:31;0.00;0.00;0.62;0.00;0.00;0.62;1.70;1.17;;;20.40;24.50;;;;;;2260061;61;20908;-52
2023/01/24 06:53:16;0.00;0.00;0.62;0.00;0.00;0.62;1.77;1.40;;;20.40;24.00;;;;;;2258849;61;20449;-52
2023/01/24 06:56:02;0.00;0.00;0.62;0.00;0.00;0.62;1.83;1.33;;;20.40;24.00;;;;;;2259736;61;20385;-55
2023/01/24 06:58:47;0.00;0.00;0.62;0.00;0.00;0.62;1.67;1.30;;;20.40;24.00;;;;;;2259691;61;20398;-56
2023/01/24 07:01:32;0.00;0.00;0.62;0.00;0.00;0.62;2.07;1.47;;;20.40;24.00;;;;;;2259814;61;20397;-51
2023/01/24 07:04:17;0.00;0.00;0.62;0.00;0.00;0.62;2.13;1.40;;;20.40;24.00;;;;;;2259643;61;20524;-54
2023/01/24 07:07:02;0.00;0.00;0.62;0.00;0.00;0.62;2.33;1.50;;;20.40;24.00;;;;;;2258414;61;20361;-58
2023/01/24 07:09:47;0.00;0.00;0.62;0.00;0.00;0.62;1.90;1.43;;;20.40;24.00;;;;;;2259796;61;20873;-54
2023/01/24 07:12:33;0.00;0.00;0.62;0.00;0.00;0.62;2.00;1.40;;;20.40;24.00;;;;;;2259607;61;20394;-56
2023/01/24 07:15:17;0.00;0.00;0.62;0.00;0.00;0.62;1.40;1.03;;;20.40;24.00;;;;;;2259246;61;20397;-59
2023/01/24 07:18:06;0.00;0.00;0.62;0.00;0.00;0.62;1.63;1.13;;;20.40;24.00;;;;;;2259100;61;20377;-53
2023/01/24 07:20:51;0.00;0.00;0.62;0.00;0.00;0.62;1.90;1.50;;;20.40;24.10;;;;;;2259648;61;20383;-57
2023/01/24 07:23:38;0.00;0.00;0.62;0.00;0.00;0.62;1.80;1.20;;;20.40;24.60;;;;;;2259396;61;20376;-54
2023/01/24 07:29:12;0.00;0.00;0.62;0.00;0.00;0.62;2.43;1.30;;;20.40;24.10;;;;;;2260743;61;20373;-58
2023/01/24 07:31:57;0.00;0.00;0.62;0.00;0.00;0.62;1.87;1.20;;;20.40;24.10;;;;;;2260026;61;20897;-56
2023/01/24 07:34:41;0.00;0.00;0.62;0.00;0.00;0.62;2.10;1.33;;;20.40;24.10;;;;;;2259404;61;20376;-56
2023/01/24 07:37:26;0.00;0.00;0.62;0.00;0.00;0.62;1.63;1.07;;;20.40;24.10;;;;;;2259023;61;20357;-54
2023/01/24 07:40:14;0.00;0.00;0.62;0.00;0.00;0.62;1.90;1.37;;;20.50;24.20;;;;;;2259582;61;20412;-58
2023/01/24 07:43:00;0.00;0.00;0.62;0.00;0.00;0.62;1.80;1.20;;;20.50;24.20;;;;;;2259679;61;20375;-58
2023/01/24 07:45:46;0.00;0.00;0.62;0.00;0.00;0.62;2.13;1.50;;;20.50;24.70;;;;;;2259377;61;20567;-56
2023/01/24 07:48:31;0.00;0.00;0.62;0.00;0.00;0.62;1.97;1.47;;;20.50;24.20;;;;;;2259485;61;20784;-57
2023/01/24 07:51:16;0.00;0.00;0.62;0.00;0.00;0.62;1.90;1.50;;;20.50;24.00;;;;;;2259107;61;20397;-53
2023/01/24 07:54:00;0.00;0.00;0.62;0.00;0.00;0.62;1.87;1.37;;;20.50;24.00;;;;;;2259647;61;20352;-64
2023/01/24 07:56:45;0.00;0.00;0.62;0.00;0.00;0.62;2.43;1.93;;;20.50;23.90;;;;;;2257507;61;20468;-59
2023/01/24 07:59:30;0.00;0.00;0.62;0.00;0.00;0.62;2.97;2.00;;;20.40;23.80;;;;;;2259133;61;20411;-58
2023/01/24 08:02:17;0.00;0.00;0.62;0.00;0.00;0.62;2.10;1.80;;;20.40;23.80;;;;;;2259920;61;20364;-66
2023/01/24 08:05:01;0.00;0.00;0.62;0.00;0.00;0.62;2.43;2.07;;;20.40;23.80;;;;;;2260054;61;20420;-63
2023/01/24 08:07:46;0.00;0.00;0.62;0.00;0.00;0.62;3.00;2.30;;;20.40;23.80;;;;;;2260105;61;20368;-62
2023/01/24 08:10:31;0.00;0.00;0.62;0.00;0.00;0.62;2.50;1.60;;;20.40;23.80;;;;;;2260107;61;20368;-62
2023/01/24 08:13:16;0.00;0.00;0.62;0.00;0.00;0.62;2.40;1.60;;;20.40;23.80;;;;;;2260273;61;20422;-62
2023/01/24 08:16:01;0.00;0.00;0.62;0.00;0.00;0.62;2.47;1.77;;;20.40;23.80;;;;;;2260406;61;20920;-63
2023/01/24 08:18:47;0.00;0.00;0.62;0.00;0.00;0.62;2.53;1.87;;;20.40;23.80;;;;;;2259910;61;20396;-64
2023/01/24 08:21:32;0.00;0.00;0.62;0.00;0.00;0.62;2.20;1.90;;;20.30;23.70;;;;;;2259462;61;20405;-60
2023/01/24 08:24:17;0.00;0.00;0.62;0.00;0.00;0.62;2.13;1.90;;;20.30;23.70;;;;;;2259642;61;20469;-63
2023/01/24 08:27:02;0.00;0.00;0.62;0.00;0.00;0.62;2.40;2.17;;;20.30;23.70;;;;;;2259827;61;20436;-64
2023/01/24 08:29:47;0.00;0.00;0.62;0.00;0.00;0.62;2.10;1.83;;;20.30;23.70;;;;;;2256147;61;20357;-63
2023/01/24 08:32:33;0.00;0.00;0.62;0.00;0.00;0.62;2.33;2.00;;;20.30;23.70;;;;;;2486334;53;20361;-63
2023/01/24 08:35:19;0.00;0.00;0.62;0.00;0.00;0.62;2.10;1.50;;;20.30;23.70;;;;;;2255281;61;20399;-60
2023/01/24 08:38:04;0.00;0.00;0.62;0.00;0.00;0.62;3.47;2.70;;;20.30;23.70;;;;;;2255319;61;20401;-67
2023/01/24 08:40:49;0.00;0.00;0.62;0.00;0.00;0.62;3.17;2.10;;;20.30;23.70;;;;;;2255137;61;20420;-65
2023/01/24 08:43:34;0.00;0.00;0.62;0.00;0.00;0.62;3.20;2.03;;;20.20;23.60;;;;;;2254311;61;20433;-65
2023/01/24 08:46:18;0.00;0.00;0.62;0.00;0.00;0.62;2.43;2.20;;;20.20;23.60;;;;;;2255329;61;20385;-60
2023/01/24 08:49:03;0.00;0.00;0.62;0.00;0.00;0.62;3.70;2.17;;;20.20;23.50;;;;;;2255404;61;20401;-56
2023/01/24 08:51:50;0.00;0.00;0.62;0.00;0.00;0.62;2.30;1.83;;;20.20;23.50;;;;;;2254713;61;20381;-62
2023/01/24 08:54:35;0.00;0.00;0.62;0.00;0.00;0.62;3.53;2.40;;;20.20;23.50;;;;;;2254654;61;20454;-62
2023/01/24 08:57:20;0.00;0.00;0.62;0.00;0.00;0.62;2.90;2.60;;;20.30;23.60;;;;;;2254923;61;20446;-60
2023/01/24 09:00:07;0.00;0.00;0.62;0.00;0.00;0.62;3.00;1.83;;;20.30;23.60;;;;;;2255046;61;20366;-62
2023/01/24 09:02:52;0.00;0.00;0.62;0.00;0.00;0.62;2.57;2.20;;;20.20;23.50;;;;;;2251764;61;20409;-61
2023/01/24 09:05:38;0.00;0.00;0.62;0.00;0.00;0.62;3.13;2.60;;;20.20;23.50;;;;;;2257865;61;20527;-62
2023/01/24 09:08:24;0.00;0.00;0.62;0.00;0.00;0.62;2.10;1.80;;;20.20;23.50;;;;;;2259015;61;20460;-60
2023/01/24 09:11:09;0.00;0.00;0.62;0.00;0.00;0.62;2.57;2.03;;;20.20;23.50;;;;;;2259260;61;20450;-59
2023/01/24 09:13:54;0.00;0.00;0.62;0.00;0.00;0.62;2.63;2.23;;;20.20;23.50;;;;;;2255620;61;20396;-59
2023/01/24 09:16:39;0.00;0.00;0.62;0.00;0.00;0.62;2.73;1.90;;;20.20;23.30;;;;;;2259866;61;20426;-63
2023/01/24 09:19:26;0.00;0.00;0.62;0.00;0.00;0.62;2.67;2.17;;;20.20;23.20;;;;;;2258708;61;20407;-62
2023/01/24 09:22:11;0.00;0.00;0.62;0.00;0.00;0.62;2.60;2.03;;;20.20;23.30;;;;;;2600528;45;20358;-63
2023/01/24 09:24:57;0.00;0.00;0.62;0.00;0.00;0.62;3.23;2.37;;;20.20;23.30;;;;;;2255205;61;20440;-60
2023/01/24 09:27:41;0.00;0.00;0.62;0.00;0.00;0.62;2.87;2.07;;;20.20;23.40;;;;;;2252454;61;20425;-62
2023/01/24 09:30:26;0.00;0.00;0.62;0.00;0.00;0.62;4.77;2.53;;;20.20;23.30;;;;;;2256087;61;20381;-60
2023/01/24 09:33:11;0.00;0.00;0.62;0.00;0.00;0.62;2.40;1.93;;;20.20;23.40;;;;;;2259617;61;20778;-65
2023/01/24 09:36:02;0.00;0.00;0.62;0.00;0.00;0.62;2.20;2.00;;;20.20;23.40;;;;;;2256130;61;21016;-62
2023/01/24 09:38:47;0.00;0.00;0.62;0.00;0.00;0.62;2.80;2.13;;;20.20;23.40;;;;;;2259950;61;20415;-62
2023/01/24 09:41:45;0.00;0.00;0.62;0.00;0.00;0.62;2.97;2.50;;;20.20;23.40;;;;;;2259826;61;20877;-61
2023/01/24 09:44:40;0.00;0.00;0.62;0.00;0.00;0.62;3.27;2.40;;;20.20;23.40;;;;;;2259716;61;20397;-63
2023/01/24 09:47:34;0.00;0.00;0.62;0.00;0.00;0.62;3.40;2.40;;;20.20;23.30;;;;;;2259041;61;20405;-62
2023/01/24 09:50:22;0.00;0.00;0.62;0.00;0.00;0.62;3.03;2.30;;;20.20;23.40;;;;;;2256046;61;20493;-61
2023/01/24 09:53:16;0.00;0.00;0.62;0.00;0.00;0.62;2.40;2.13;;;20.20;23.40;;;;;;2259653;61;20422;-61
2023/01/24 09:56:04;0.00;0.00;0.62;0.00;0.00;0.62;3.53;2.73;;;20.20;23.40;;;;;;2523262;53;20433;-64
2023/01/24 09:59:10;0.00;0.00;0.62;0.00;0.00;0.62;2.40;2.00;;;20.20;23.40;;;;;;2255882;61;20365;-63
2023/01/24 10:01:55;0.00;0.00;0.62;0.00;0.00;0.62;2.60;2.00;;;20.20;23.50;;;;;;2255686;61;20771;-61
2023/01/24 10:04:40;0.00;0.00;0.62;0.00;0.00;0.62;2.60;1.73;;;20.20;23.50;;;;;;2254966;61;20409;-68
2023/01/24 10:08:04;0.00;0.00;0.62;0.00;0.00;0.62;2.17;1.60;;;20.20;23.50;;;;;;2255745;61;20384;-63
2023/01/24 10:10:58;0.00;0.00;0.62;0.00;0.00;0.62;2.60;2.17;;;20.20;23.60;;;;;;2255518;61;20789;-59
2023/01/24 10:14:26;0.00;0.00;0.62;0.00;0.00;0.62;2.47;1.90;;;20.20;23.60;;;;;;2252552;61;20362;-60
2023/01/24 10:17:59;0.00;0.00;0.62;0.00;0.00;0.62;2.43;1.90;;;20.20;23.60;;;;;;2252609;61;20381;-62
2023/01/24 10:21:07;0.00;0.00;0.62;0.00;0.00;0.62;2.63;2.07;;;20.20;23.60;;;;;;2256370;61;20789;-62
2023/01/24 10:23:56;0.00;0.00;0.62;0.00;0.00;0.62;2.60;1.87;;;20.20;23.60;;;;;;2256085;61;20427;-55
2023/01/24 10:26:47;0.00;0.00;0.62;0.00;0.00;0.62;2.00;1.73;;;20.20;23.70;;;;;;2251689;61;20485;-61
2023/01/24 10:29:40;0.00;0.00;0.62;0.00;0.00;0.62;2.50;1.63;;;20.20;23.70;;;;;;2255046;61;20385;-60
2023/01/24 10:32:32;0.00;0.00;0.62;0.00;0.00;0.62;2.07;1.53;;;20.30;23.80;;;;;;2255382;61;20417;-60
2023/01/24 10:35:23;0.00;0.00;0.62;0.00;0.00;0.62;2.50;2.10;;;20.30;23.80;;;;;;2254730;61;20421;-64
2023/01/24 10:38:15;0.00;0.00;0.62;0.00;0.00;0.62;3.70;2.13;;;20.30;23.80;;;;;;2254620;61;20354;-63
2023/01/24 10:41:22;0.00;0.00;0.62;0.00;0.00;0.62;2.10;1.60;;;20.30;23.80;;;;;;2255004;61;20369;-61
2023/01/24 10:44:14;0.00;0.00;0.62;0.00;0.00;0.62;2.53;1.80;;;20.30;23.80;;;;;;2251806;61;20533;-61
2023/01/24 10:47:39;0.00;0.00;0.62;0.00;0.00;0.62;2.07;1.50;;;20.40;23.90;;;;;;2254251;61;20380;-63
2023/01/24 10:50:32;0.00;0.00;0.62;0.00;0.00;0.62;2.33;2.10;;;20.40;23.90;;;;;;2254642;61;20952;-60
2023/01/24 10:53:24;0.00;0.00;0.62;0.00;0.00;0.62;2.30;1.80;;;20.40;23.90;;;;;;2663361;45;20366;-57
2023/01/24 10:56:11;0.00;0.00;0.62;0.00;0.00;0.62;2.50;1.60;;;20.40;23.90;;;;;;2254650;61;20382;-60
2023/01/24 10:59:00;0.00;0.00;0.62;0.00;0.00;0.62;2.20;1.47;;;20.40;24.00;;;;;;2255271;61;20346;-64
2023/01/24 11:01:48;0.00;0.00;0.62;0.00;0.00;0.62;3.73;1.83;;;20.40;23.90;;;;;;2255222;61;20361;-55
2023/01/24 11:04:34;0.00;0.00;0.62;0.00;0.00;0.62;2.00;1.40;;;20.50;24.00;;;;;;2251749;61;20944;-57
2023/01/24 11:07:29;0.00;0.00;0.62;0.00;0.00;0.62;2.30;1.50;;;20.50;24.00;;;;;;2255347;61;20370;-60
2023/01/24 11:10:24;0.00;0.00;0.62;0.00;0.00;0.62;2.10;1.60;;;20.50;24.00;;;;;;2255477;61;20405;-56
2023/01/24 11:13:28;0.00;0.00;0.62;0.00;0.00;0.62;2.07;1.57;;;20.50;24.00;;;;;;2255054;61;20424;-57
2023/01/24 11:16:22;0.00;0.00;0.62;0.00;0.00;0.62;1.87;1.53;;;20.50;24.00;;;;;;2251455;61;20413;-60
2023/01/24 11:19:23;0.00;0.00;0.62;0.00;0.00;0.62;2.03;1.53;;;20.50;24.00;;;;;;2254597;61;20366;-61
2023/01/24 11:22:23;0.00;0.00;0.62;0.00;0.00;0.62;2.27;1.70;;;20.60;24.10;;;;;;2255140;61;20366;-62
2023/01/24 11:25:14;0.00;0.00;0.62;0.00;0.00;0.62;2.00;1.40;;;20.60;24.10;;;;;;2254693;61;20394;-63
2023/01/24 11:28:00;0.00;0.00;0.62;0.00;0.00;0.62;1.83;1.30;;;20.60;24.10;;;;;;2254429;61;20417;-61
2023/01/24 11:30:45;0.00;0.00;0.62;0.00;0.00;0.62;2.10;1.50;;;20.60;24.00;;;;;;2255025;61;20381;-62
2023/01/24 11:33:52;0.00;0.00;0.62;0.00;0.00;0.62;1.70;1.30;;;20.60;24.10;;;;;;2254522;61;20401;-63
2023/01/24 11:36:48;0.00;0.00;0.62;0.00;0.00;0.62;2.03;1.50;;;20.60;24.00;;;;;;2254527;61;20416;-61
2023/01/24 11:39:47;0.00;0.00;0.62;0.00;0.00;0.62;2.00;1.50;;;20.60;24.10;;;;;;2254586;61;20386;-62
2023/01/24 11:42:37;0.00;0.00;0.62;0.00;0.00;0.62;1.90;1.40;;;20.70;24.20;;;;;;2285123;61;20889;-63
2023/01/24 11:45:46;0.00;0.00;0.62;0.00;0.00;0.62;1.70;1.33;;;20.70;24.20;;;;;;2258578;61;20451;-64
2023/01/24 11:48:37;0.00;0.00;0.62;0.00;0.00;0.62;2.50;1.50;;;20.70;24.10;;;;;;2258292;61;20404;-59
2023/01/24 11:51:43;0.00;0.00;0.62;0.00;0.00;0.62;2.07;1.30;;;20.80;24.20;;;;;;2258938;61;20445;-62